createdAt,value
2022-10-13T00:01:00.609Z,18.73
2022-10-13T00:03:27.926Z,14.40
2022-10-13T00:05:55.180Z,15.53
2022-10-13T00:08:22.738Z,17.50
2022-10-13T00:10:51.566Z,13.45
2022-10-13T00:13:24.386Z,17.75
2022-10-13T00:15:51.716Z,20.05
2022-10-13T00:18:19.017Z,17.60
2022-10-13T00:20:47.840Z,17.63
2022-10-13T00:23:15.631Z,12.10
2022-10-13T00:25:44.219Z,17.65
2022-10-13T00:28:12.015Z,12.30
2022-10-13T00:30:39.672Z,15.37
2022-10-13T00:33:07.293Z,14.05
2022-10-13T00:35:35.129Z,16.80
2022-10-13T00:38:02.378Z,15.68
2022-10-13T00:40:31.512Z,15.57
2022-10-13T00:42:59.068Z,13.70
2022-10-13T00:45:27.788Z,14.52
2022-10-13T00:47:59.401Z,16.95
2022-10-13T00:50:29.334Z,11.13
2022-10-13T00:52:58.050Z,17.75
2022-10-13T00:55:26.934Z,14.33
2022-10-13T00:57:55.845Z,17.27
2022-10-13T01:00:30.320Z,17.10
2022-10-13T01:02:57.952Z,20.00
2022-10-13T01:05:25.764Z,17.27
2022-10-13T01:07:55.976Z,15.17
2022-10-13T01:10:35.624Z,13.82
2022-10-13T01:13:24.137Z,14.77
2022-10-13T01:16:02.896Z,14.05
2022-10-13T01:18:33.361Z,16.27
2022-10-13T01:21:09.534Z,15.03
2022-10-13T01:23:36.781Z,14.63
2022-10-13T01:26:10.294Z,13.38
2022-10-13T01:28:46.901Z,16.88
2022-10-13T01:31:21.210Z,15.48
2022-10-13T01:34:03.778Z,14.60
2022-10-13T01:36:49.954Z,18.67
2022-10-13T01:39:20.286Z,14.20
2022-10-13T01:41:50.543Z,22.40
2022-10-13T01:44:23.643Z,15.27
2022-10-13T01:46:53.724Z,13.57
2022-10-13T01:49:24.151Z,17.13
2022-10-13T01:51:52.322Z,17.33
2022-10-13T01:54:19.518Z,13.80
2022-10-13T01:56:56.823Z,14.30
2022-10-13T01:59:25.050Z,14.43
2022-10-13T02:02:04.561Z,14.27
2022-10-13T02:04:43.092Z,15.00
2022-10-13T02:07:14.762Z,15.48
2022-10-13T02:09:44.990Z,15.52
2022-10-13T02:12:41.754Z,17.50
2022-10-13T02:15:11.023Z,16.77
2022-10-13T02:17:38.807Z,13.82
2022-10-13T02:20:07.050Z,17.67
2022-10-13T02:22:38.952Z,14.18
2022-10-13T02:25:06.589Z,15.57
2022-10-13T02:27:33.868Z,13.88
2022-10-13T02:30:01.084Z,15.90
2022-10-13T02:32:30.003Z,16.08
2022-10-13T02:34:57.481Z,17.35
2022-10-13T02:37:26.160Z,19.37
2022-10-13T02:39:53.403Z,13.07
2022-10-13T02:42:20.938Z,17.73
2022-10-13T02:44:48.463Z,14.65
2022-10-13T02:47:15.666Z,16.48
2022-10-13T02:49:43.023Z,14.67
2022-10-13T02:52:10.330Z,17.05
2022-10-13T02:54:42.790Z,13.80
2022-10-13T02:57:10.022Z,11.75
2022-10-13T02:59:37.280Z,15.88
2022-10-13T03:02:04.560Z,14.07
2022-10-13T03:04:32.332Z,19.60
2022-10-13T03:06:59.674Z,13.30
2022-10-13T03:09:26.898Z,15.52
2022-10-13T03:11:54.131Z,13.93
2022-10-13T03:14:21.366Z,16.17
2022-10-13T03:16:48.554Z,12.68
2022-10-13T03:19:16.343Z,16.42
2022-10-13T03:21:43.576Z,15.40
2022-10-13T03:24:10.850Z,17.30
2022-10-13T03:26:38.207Z,14.83
2022-10-13T03:29:05.592Z,11.65
2022-10-13T03:31:32.805Z,14.93
2022-10-13T03:34:03.072Z,14.60
2022-10-13T03:36:30.351Z,16.27
2022-10-13T03:38:57.567Z,13.60
2022-10-13T03:41:24.948Z,18.88
2022-10-13T03:43:52.189Z,15.55
2022-10-13T03:46:19.422Z,13.70
2022-10-13T03:48:47.673Z,14.63
2022-10-13T03:51:16.733Z,13.53
2022-10-13T03:53:47.212Z,15.75
2022-10-13T03:56:16.331Z,10.38
2022-10-13T03:58:54.146Z,17.08
2022-10-13T04:01:22.743Z,17.90
2022-10-13T04:03:50.634Z,14.83
2022-10-13T04:06:17.960Z,14.35
2022-10-13T04:08:45.341Z,13.57
2022-10-13T04:11:13.646Z,14.75
2022-10-13T04:13:42.981Z,14.15
2022-10-13T04:16:13.502Z,18.20
2022-10-13T04:18:44.473Z,16.00
2022-10-13T04:21:13.387Z,17.65
2022-10-13T04:23:40.662Z,17.90
2022-10-13T04:26:08.039Z,17.38
2022-10-13T04:28:36.041Z,19.77
2022-10-13T04:31:03.764Z,19.52
2022-10-13T04:33:31.477Z,13.55
2022-10-13T04:35:58.748Z,18.70
2022-10-13T04:38:26.033Z,15.80
2022-10-13T04:40:53.233Z,13.70
2022-10-13T04:43:20.837Z,16.52
2022-10-13T04:45:48.675Z,16.13
2022-10-13T04:48:15.967Z,15.60
2022-10-13T04:50:43.295Z,14.68
2022-10-13T04:53:13.197Z,16.47
2022-10-13T04:55:42.646Z,13.35
2022-10-13T04:58:09.897Z,17.38
2022-10-13T05:00:37.125Z,14.48
2022-10-13T05:03:04.407Z,20.13
2022-10-13T05:05:31.696Z,16.67
2022-10-13T05:07:58.905Z,18.80
2022-10-13T05:10:26.159Z,18.33
2022-10-13T05:12:54.239Z,15.88
2022-10-13T05:15:21.515Z,17.20
2022-10-13T05:17:49.149Z,14.83
2022-10-13T05:20:17.725Z,15.45
2022-10-13T05:22:45.065Z,18.35
2022-10-13T05:25:12.262Z,14.82
2022-10-13T05:27:39.534Z,19.15
2022-10-13T05:30:10.257Z,18.33
2022-10-13T05:32:37.469Z,17.52
2022-10-13T05:35:04.947Z,16.98
2022-10-13T05:37:32.189Z,19.83
2022-10-13T05:39:59.448Z,21.63
2022-10-13T05:42:29.142Z,14.80
2022-10-13T05:44:57.453Z,16.48
2022-10-13T05:47:28.195Z,17.88
2022-10-13T05:49:56.611Z,17.52
2022-10-13T05:52:25.193Z,21.38
2022-10-13T05:54:55.592Z,18.23
2022-10-13T05:57:36.058Z,19.90
2022-10-13T06:00:06.142Z,17.23
2022-10-13T06:02:45.218Z,15.52
2022-10-13T06:05:15.119Z,18.50
2022-10-13T06:07:42.903Z,22.33
2022-10-13T06:10:11.591Z,21.42
2022-10-13T06:12:38.851Z,16.95
2022-10-13T06:15:06.618Z,21.38
2022-10-13T06:17:36.913Z,17.63
2022-10-13T06:20:06.146Z,21.87
2022-10-13T06:22:34.159Z,21.15
2022-10-13T06:25:01.458Z,21.77
2022-10-13T06:27:28.820Z,18.40
2022-10-13T06:29:57.975Z,22.52
2022-10-13T06:32:25.304Z,19.80
2022-10-13T06:34:52.594Z,19.35
2022-10-13T06:37:24.670Z,21.85
2022-10-13T06:39:54.325Z,19.63
2022-10-13T06:42:22.120Z,20.05
2022-10-13T06:45:08.102Z,19.13
2022-10-13T06:47:35.363Z,19.63
2022-10-13T06:50:02.618Z,23.88
2022-10-13T06:52:29.824Z,22.17
2022-10-13T06:54:57.076Z,22.30
2022-10-13T06:57:24.635Z,19.47
2022-10-13T06:59:53.250Z,21.33
2022-10-13T07:02:20.841Z,24.58
2022-10-13T07:04:48.302Z,23.55
2022-10-13T07:07:16.452Z,25.17
2022-10-13T07:09:43.917Z,22.53
2022-10-13T07:12:11.190Z,22.80
2022-10-13T07:14:40.479Z,23.20
2022-10-13T07:17:11.219Z,22.83
2022-10-13T07:19:38.440Z,24.90
2022-10-13T07:22:05.658Z,21.53
2022-10-13T07:24:33.047Z,22.35
2022-10-13T07:27:05.239Z,23.92
2022-10-13T07:29:34.976Z,24.23
2022-10-13T07:32:02.217Z,22.02
2022-10-13T07:34:29.515Z,26.53
2022-10-13T07:36:56.722Z,22.15
2022-10-13T07:39:23.995Z,20.73
2022-10-13T07:41:51.486Z,23.17
2022-10-13T07:44:18.962Z,27.10
2022-10-13T07:46:46.192Z,20.43
2022-10-13T07:49:16.114Z,25.75
2022-10-13T07:51:44.204Z,23.73
2022-10-13T07:54:11.498Z,23.67
2022-10-13T07:56:39.852Z,26.60
2022-10-13T07:59:07.706Z,21.40
2022-10-13T08:01:35.150Z,27.27
2022-10-13T08:04:02.532Z,21.27
2022-10-13T08:06:29.932Z,20.20
2022-10-13T08:09:00.653Z,20.52
2022-10-13T08:11:28.091Z,22.53
2022-10-13T08:13:56.017Z,22.70
2022-10-13T08:16:23.676Z,20.83
2022-10-13T08:18:50.953Z,21.58
2022-10-13T08:24:07.169Z,17.73
2022-10-13T08:26:34.418Z,20.60
2022-10-13T08:29:21.996Z,17.45
2022-10-13T08:34:22.106Z,18.20
2022-10-13T08:36:52.973Z,20.27
2022-10-13T08:39:21.006Z,21.17
2022-10-13T08:41:48.376Z,18.88
2022-10-13T08:45:05.836Z,19.05
2022-10-13T08:47:14.847Z,19.83
2022-10-13T08:49:43.369Z,20.17
2022-10-13T08:52:13.634Z,17.40
2022-10-13T08:54:40.900Z,18.70
2022-10-13T08:57:09.732Z,19.20
2022-10-13T08:59:37.040Z,25.52
2022-10-13T09:02:10.355Z,25.43
2022-10-13T09:04:41.548Z,17.75
2022-10-13T09:07:27.365Z,20.77
2022-10-13T09:09:55.259Z,19.95
2022-10-13T09:12:25.273Z,27.58
2022-10-13T09:15:05.374Z,25.40
2022-10-13T09:17:33.563Z,19.40
2022-10-13T09:20:21.253Z,20.45
2022-10-13T09:23:07.133Z,21.83
2022-10-13T09:25:42.099Z,17.23
2022-10-13T09:28:26.722Z,23.37
2022-10-13T09:31:02.217Z,20.98
2022-10-13T09:33:29.794Z,18.23
2022-10-13T09:35:57.021Z,16.88
2022-10-13T09:38:25.838Z,17.95
2022-10-13T09:40:59.967Z,17.23
2022-10-13T09:43:33.400Z,19.65
2022-10-13T09:46:01.605Z,15.73
2022-10-13T09:48:33.691Z,17.92
2022-10-13T09:51:01.115Z,20.45
2022-10-13T09:53:35.472Z,15.87
2022-10-13T09:56:23.241Z,15.43
2022-10-13T09:59:02.745Z,15.77
2022-10-13T10:01:33.401Z,16.48
2022-10-13T10:04:02.060Z,16.05
2022-10-13T10:06:30.499Z,17.60
2022-10-13T10:09:04.202Z,16.65
2022-10-13T10:11:40.481Z,15.48
2022-10-13T10:14:17.529Z,16.90
2022-10-13T10:16:47.305Z,17.13
2022-10-13T10:19:28.347Z,17.40
2022-10-13T10:22:09.289Z,19.80
2022-10-13T10:24:48.553Z,17.55
2022-10-13T10:29:58.456Z,17.92
2022-10-13T10:32:34.858Z,17.93
2022-10-13T10:35:02.751Z,16.60
2022-10-13T10:37:44.685Z,15.55
2022-10-13T10:40:30.614Z,16.05
2022-10-13T10:43:03.824Z,20.50
2022-10-13T10:45:34.799Z,18.20
2022-10-13T10:48:03.477Z,17.13
2022-10-13T10:50:31.625Z,17.80
2022-10-13T10:53:17.093Z,20.23
2022-10-13T10:55:47.350Z,17.30
2022-10-13T10:58:14.555Z,19.23
2022-10-13T11:00:46.358Z,17.20
2022-10-13T11:03:32.163Z,14.75
2022-10-13T11:06:17.678Z,16.60
2022-10-13T11:08:47.079Z,18.52
2022-10-13T11:11:26.617Z,20.83
2022-10-13T11:14:01.801Z,16.63
2022-10-13T11:16:34.014Z,22.35
2022-10-13T11:19:07.834Z,17.08
2022-10-13T11:21:53.569Z,21.33
2022-10-13T11:24:43.765Z,18.77
2022-10-13T11:27:14.635Z,22.90
2022-10-13T11:29:46.570Z,21.55
2022-10-13T11:32:46.470Z,21.25
2022-10-13T11:35:24.901Z,22.23
2022-10-13T11:38:07.462Z,25.47
2022-10-13T11:40:54.385Z,21.48
2022-10-13T11:43:21.625Z,23.60
2022-10-13T11:46:07.767Z,25.38
2022-10-13T11:48:51.782Z,21.08
2022-10-13T11:51:29.741Z,25.83
2022-10-13T11:54:04.998Z,21.70
2022-10-13T11:56:48.655Z,22.75
2022-10-13T11:59:25.609Z,18.23
2022-10-13T12:01:56.506Z,25.67
2022-10-13T12:04:24.735Z,23.67
2022-10-13T12:07:00.207Z,23.75
2022-10-13T12:09:27.849Z,23.55
2022-10-13T12:11:59.992Z,22.50
2022-10-13T12:14:32.516Z,26.55
2022-10-13T12:17:01.644Z,19.77
2022-10-13T12:19:30.388Z,22.40
2022-10-13T12:21:59.083Z,21.92
2022-10-13T12:24:28.049Z,19.58
2022-10-13T12:26:55.922Z,22.02
2022-10-13T12:29:25.579Z,18.50
2022-10-13T12:31:53.663Z,18.70
2022-10-13T12:34:23.505Z,17.98
2022-10-13T12:37:01.490Z,18.30
2022-10-13T12:39:33.044Z,16.17
2022-10-13T12:42:01.366Z,19.57
2022-10-13T12:44:29.559Z,19.17
2022-10-13T12:46:59.256Z,26.88
2022-10-13T12:49:28.191Z,17.75
2022-10-13T12:52:04.681Z,18.77
2022-10-13T12:54:33.193Z,17.83
2022-10-13T12:57:02.264Z,20.08
2022-10-13T12:59:31.514Z,17.55
2022-10-13T13:02:00.806Z,20.42
2022-10-13T13:04:40.438Z,16.90
2022-10-13T13:07:23.254Z,15.60
2022-10-13T13:10:00.847Z,14.82
2022-10-13T13:12:28.906Z,19.95
2022-10-13T13:14:56.627Z,21.08
2022-10-13T13:20:21.904Z,19.80
2022-10-13T13:22:50.728Z,16.15
2022-10-13T13:25:17.926Z,21.20
2022-10-13T13:27:45.290Z,16.60
2022-10-13T13:30:19.041Z,22.35
2022-10-13T13:32:46.740Z,20.67
2022-10-13T13:35:14.036Z,16.30
2022-10-13T13:37:43.609Z,21.08
2022-10-13T13:40:31.690Z,19.40
2022-10-13T13:42:59.076Z,17.73
2022-10-13T13:45:31.513Z,19.33
2022-10-13T13:48:02.402Z,21.27
2022-10-13T13:50:33.292Z,16.73
2022-10-13T13:53:00.692Z,19.13
2022-10-13T13:55:29.535Z,22.98
2022-10-13T13:57:56.922Z,17.70
2022-10-13T14:00:24.354Z,19.02
2022-10-13T14:02:55.704Z,20.40
2022-10-13T14:05:23.495Z,19.38
2022-10-13T14:07:53.348Z,17.48
2022-10-13T14:10:20.599Z,19.63
2022-10-13T14:12:47.985Z,17.67
2022-10-13T14:15:15.344Z,19.70
2022-10-13T14:17:42.624Z,19.40
2022-10-13T14:20:10.188Z,19.90
2022-10-13T14:22:38.978Z,19.33
2022-10-13T14:25:07.290Z,19.10
2022-10-13T14:27:35.398Z,18.05
2022-10-13T14:30:02.692Z,23.02
2022-10-13T14:32:30.049Z,21.25
2022-10-13T14:34:57.464Z,23.90
2022-10-13T14:37:28.999Z,40.03
2022-10-13T14:39:59.257Z,25.48
2022-10-13T14:42:26.559Z,29.17
2022-10-13T14:44:53.816Z,23.15
2022-10-13T14:47:21.375Z,21.03
2022-10-13T14:49:48.993Z,19.90
2022-10-13T14:52:16.280Z,19.00
2022-10-13T14:54:44.990Z,20.00
2022-10-13T14:57:15.991Z,22.08
2022-10-13T14:59:43.733Z,22.63
2022-10-13T15:02:14.226Z,18.25
2022-10-13T15:04:52.164Z,20.20
2022-10-13T15:07:19.845Z,22.05
2022-10-13T15:09:52.824Z,18.58
2022-10-13T15:12:31.714Z,17.73
2022-10-13T15:14:59.059Z,20.30
2022-10-13T15:17:26.467Z,20.25
2022-10-13T15:19:53.746Z,19.13
2022-10-13T15:22:21.220Z,23.00
2022-10-13T15:24:48.765Z,19.03
2022-10-13T15:27:16.921Z,19.85
2022-10-13T15:29:44.568Z,19.55
2022-10-13T15:32:13.454Z,17.25
2022-10-13T15:34:41.745Z,15.00
2022-10-13T15:37:09.012Z,15.70
2022-10-13T15:39:36.468Z,16.10
2022-10-13T15:42:04.238Z,13.88
2022-10-13T15:44:51.094Z,17.17
2022-10-13T15:47:19.064Z,15.52
2022-10-13T15:49:46.343Z,13.80
2022-10-13T15:52:13.659Z,13.40
2022-10-13T15:54:41.014Z,20.30
2022-10-13T15:57:08.745Z,14.02
2022-10-13T15:59:36.038Z,14.55
2022-10-13T16:02:03.254Z,18.37
2022-10-13T16:04:34.852Z,16.88
2022-10-13T16:07:04.652Z,15.40
2022-10-13T16:09:31.998Z,15.35
2022-10-13T16:11:59.229Z,19.90
2022-10-13T16:14:26.505Z,16.13
2022-10-13T16:16:53.795Z,16.25
2022-10-13T16:19:21.085Z,14.05
2022-10-13T16:21:49.339Z,13.43
2022-10-13T16:24:16.577Z,13.65
2022-10-13T16:26:43.917Z,12.37
2022-10-13T16:29:11.177Z,12.07
2022-10-13T16:31:38.471Z,10.20
2022-10-13T16:34:05.707Z,9.25
2022-10-13T16:36:33.026Z,10.10
2022-10-13T16:39:01.333Z,9.17
2022-10-13T16:41:28.700Z,10.07
2022-10-13T16:43:55.983Z,8.45
2022-10-13T16:46:23.249Z,10.55
2022-10-13T16:48:50.487Z,7.75
2022-10-13T16:51:19.184Z,7.00
2022-10-13T16:53:50.329Z,7.68
2022-10-13T16:56:22.153Z,9.13
2022-10-13T16:58:50.117Z,9.45
2022-10-13T17:01:17.546Z,6.13
2022-10-13T17:03:45.536Z,7.30
2022-10-13T17:06:13.903Z,6.22
2022-10-13T17:08:42.252Z,7.00
2022-10-13T17:11:10.991Z,8.02
2022-10-13T17:13:38.227Z,8.50
2022-10-13T17:16:05.680Z,10.87
2022-10-13T17:18:33.109Z,6.22
2022-10-13T17:21:01.257Z,33.53
2022-10-13T17:23:29.349Z,9.63
2022-10-13T17:25:56.961Z,6.53
2022-10-13T17:28:24.269Z,7.00
2022-10-13T17:30:59.020Z,6.82
2022-10-13T17:33:30.526Z,6.97
2022-10-13T17:36:01.718Z,6.13
2022-10-13T17:38:29.678Z,5.60
2022-10-13T17:41:00.613Z,6.67
2022-10-13T17:43:27.977Z,6.13
2022-10-13T17:45:58.206Z,5.72
2022-10-13T17:48:33.606Z,13.02
2022-10-13T17:51:08.040Z,22.38
2022-10-13T17:53:35.700Z,6.97
2022-10-13T17:56:03.801Z,6.90
2022-10-13T17:58:31.310Z,7.88
2022-10-13T18:01:12.800Z,11.32
2022-10-13T18:03:51.270Z,14.13
2022-10-13T18:06:19.911Z,9.47
2022-10-13T18:08:47.440Z,7.65
2022-10-13T18:11:16.173Z,7.20
2022-10-13T18:13:44.671Z,8.75
2022-10-13T18:16:16.535Z,9.35
2022-10-13T18:18:44.949Z,8.53
2022-10-13T18:21:13.410Z,10.02
2022-10-13T18:23:41.521Z,9.15
2022-10-13T18:26:12.010Z,8.40
2022-10-13T18:28:40.456Z,8.43
2022-10-13T18:31:15.144Z,8.60
2022-10-13T18:33:42.588Z,21.55
2022-10-13T18:36:17.258Z,11.85
2022-10-13T18:38:44.561Z,11.27
2022-10-13T18:41:11.866Z,12.93
2022-10-13T18:43:39.117Z,11.50
2022-10-13T18:46:06.417Z,12.95
2022-10-13T18:48:34.322Z,11.43
2022-10-13T18:51:06.116Z,15.40
2022-10-13T18:53:35.780Z,10.93
2022-10-13T18:56:04.168Z,14.13
2022-10-13T18:58:32.177Z,12.20
2022-10-13T19:01:03.533Z,13.40
2022-10-13T19:03:32.376Z,12.57
2022-10-13T19:05:59.606Z,21.63
2022-10-13T19:08:27.707Z,27.23
2022-10-13T19:10:54.997Z,20.45
2022-10-13T19:13:22.271Z,18.55
2022-10-13T19:15:49.567Z,25.75
2022-10-13T19:18:16.839Z,16.55
2022-10-13T19:20:46.255Z,19.17
2022-10-13T19:23:15.668Z,18.80
2022-10-13T19:25:43.288Z,15.35
2022-10-13T19:28:10.973Z,15.55
2022-10-13T19:30:38.492Z,16.92
2022-10-13T19:33:06.378Z,16.70
2022-10-13T19:35:45.064Z,19.38
2022-10-13T19:38:12.426Z,17.85
2022-10-13T19:40:43.543Z,16.73
2022-10-13T19:43:11.391Z,23.60
2022-10-13T19:45:44.315Z,27.77
2022-10-13T19:48:13.465Z,22.55
2022-10-13T19:50:41.756Z,23.50
2022-10-13T19:53:10.710Z,20.75
2022-10-13T19:55:42.018Z,23.77
2022-10-13T19:58:09.302Z,25.23
2022-10-13T20:00:36.774Z,24.75
2022-10-13T20:03:04.830Z,22.10
2022-10-13T20:05:32.135Z,19.08
2022-10-13T20:07:59.438Z,19.08
2022-10-13T20:10:26.794Z,26.37
2022-10-13T20:12:54.144Z,23.08
2022-10-13T20:15:21.420Z,23.50
2022-10-13T20:17:48.837Z,21.63
2022-10-13T20:20:20.160Z,21.13
2022-10-13T20:22:49.611Z,22.97
2022-10-13T20:25:19.888Z,23.15
2022-10-13T20:27:47.351Z,21.88
2022-10-13T20:30:14.864Z,20.60
2022-10-13T20:32:42.480Z,20.67
2022-10-13T20:35:09.854Z,19.33
2022-10-13T20:37:37.162Z,20.20
2022-10-13T20:40:05.126Z,21.38
2022-10-13T20:42:32.667Z,19.38
2022-10-13T20:44:59.906Z,19.35
2022-10-13T20:47:27.176Z,18.70
2022-10-13T20:49:54.418Z,19.35
2022-10-13T20:52:21.630Z,22.60
2022-10-13T20:54:48.915Z,19.20
2022-10-13T20:57:16.130Z,19.13
2022-10-13T20:59:45.075Z,19.60
2022-10-13T21:02:16.669Z,21.38
2022-10-13T21:04:43.925Z,22.70
2022-10-13T21:07:11.131Z,22.85
2022-10-13T21:09:38.367Z,20.20
2022-10-13T21:12:06.161Z,23.43
2022-10-13T21:14:33.471Z,22.65
2022-10-13T21:17:00.730Z,26.80
2022-10-13T21:19:29.230Z,26.00
2022-10-13T21:21:56.473Z,25.33
2022-10-13T21:24:23.725Z,24.00
2022-10-13T21:26:50.958Z,26.00
2022-10-13T21:29:18.186Z,23.00
2022-10-13T21:31:45.470Z,23.88
2022-10-13T21:34:12.780Z,24.85
2022-10-13T21:36:44.291Z,24.67
2022-10-13T21:39:13.302Z,26.77
2022-10-13T21:41:40.583Z,27.10
2022-10-13T21:44:07.844Z,28.08
2022-10-13T21:46:35.947Z,30.25
2022-10-13T21:49:05.245Z,31.93
2022-10-13T21:51:32.457Z,28.80
2022-10-13T21:54:01.200Z,27.08
2022-10-13T21:56:31.319Z,26.73
2022-10-13T21:58:59.573Z,30.23
2022-10-13T22:01:27.149Z,26.10
2022-10-13T22:03:56.328Z,29.60
2022-10-13T22:06:26.473Z,27.40
2022-10-13T22:08:54.613Z,29.38
2022-10-13T22:11:22.786Z,32.05
2022-10-13T22:13:50.160Z,31.77
2022-10-13T22:16:21.917Z,30.67
2022-10-13T22:18:51.567Z,26.60
2022-10-13T22:21:19.951Z,26.27
2022-10-13T22:23:47.583Z,26.60
2022-10-13T22:26:15.519Z,30.03
2022-10-13T22:28:43.918Z,32.58
2022-10-13T22:31:12.572Z,34.65
2022-10-13T22:33:41.107Z,29.60
2022-10-13T22:36:12.644Z,31.33
2022-10-13T22:38:39.886Z,25.50
2022-10-13T22:41:07.906Z,31.83
2022-10-13T22:43:35.823Z,90.63
2022-10-13T22:46:16.453Z,68.10
2022-10-13T22:48:43.993Z,53.63
2022-10-13T22:51:12.270Z,26.97
2022-10-13T22:53:39.663Z,52.80
2022-10-13T22:56:10.582Z,28.92
2022-10-13T22:58:38.357Z,59.95
2022-10-13T23:01:13.145Z,29.77
2022-10-13T23:03:40.932Z,25.53
2022-10-13T23:06:08.971Z,32.45
2022-10-13T23:08:36.356Z,28.75
2022-10-13T23:11:03.637Z,57.08
2022-10-13T23:13:30.991Z,44.20
2022-10-13T23:16:05.843Z,76.10
2022-10-13T23:18:37.764Z,95.45
2022-10-13T23:21:09.623Z,131.40
2022-10-13T23:23:37.177Z,62.58
2022-10-13T23:26:08.939Z,52.67
2022-10-13T23:28:36.685Z,41.53
2022-10-13T23:31:05.294Z,79.63
2022-10-13T23:33:32.589Z,85.25
2022-10-13T23:36:01.026Z,82.85
2022-10-13T23:38:29.098Z,89.70
2022-10-13T23:40:56.385Z,53.67
2022-10-13T23:43:23.625Z,178.80
2022-10-13T23:45:50.893Z,95.13
2022-10-13T23:48:18.158Z,93.95
2022-10-13T23:50:45.444Z,103.43
2022-10-13T23:53:12.683Z,122.90
2022-10-13T23:55:40.627Z,162.80
2022-10-13T23:58:08.003Z,109.43
